Time;durP1;ratioP1;P1;durP2;ratioP2;P2;SDS_P1;SDS_P2;PMS_P1;PMS_P2;Temp;Humidity;BMP_temperature;BMP_pressure;BME280_temperature;BME280_humidity;BME280_pressure;Samples;Min_cycle;Max_cycle;Signal;HPM_P1;HPM_P2
2021/08/04 00:00:07;;;;;;;44.63;9.77;;;;;;;21.44;84.51;97255.09;5094525;28;20032;-72
2021/08/04 00:02:33;;;;;;;26.77;8.95;;;;;;;21.55;83.75;97261.03;5094211;28;20027;-72
2021/08/04 00:04:59;;;;;;;25.50;8.80;;;;;;;21.53;83.99;97248.63;5077163;28;20027;-72
2021/08/04 00:07:24;;;;;;;23.55;8.95;;;;;;;21.54;84.32;97258.47;5094129;28;20096;-72
2021/08/04 00:09:51;;;;;;;19.63;9.52;;;;;;;21.55;84.36;97260.19;5094082;28;20059;-72
2021/08/04 00:12:16;;;;;;;14.68;8.90;;;;;;;21.55;84.85;97268.34;5077031;28;20387;-72
2021/08/04 00:14:42;;;;;;;17.52;9.60;;;;;;;21.47;83.95;97265.66;5111999;28;20019;-73
2021/08/04 00:17:07;;;;;;;13.32;8.73;;;;;;;21.47;84.54;97260.19;5093994;28;20023;-71
2021/08/04 00:19:33;;;;;;;14.50;8.75;;;;;;;21.45;83.71;97268.50;5094113;28;20039;-72
2021/08/04 00:21:59;;;;;;;18.48;9.48;;;;;;;21.41;83.42;97264.41;5093882;28;20059;-72
2021/08/04 00:24:24;;;;;;;16.25;8.63;;;;;;;21.45;84.03;97273.09;5093639;28;20036;-72
2021/08/04 00:26:50;;;;;;;12.70;8.98;;;;;;;21.50;84.68;97279.75;5093751;28;20038;-72
2021/08/04 00:29:15;;;;;;;16.13;8.77;;;;;;;21.59;84.17;97281.44;5093544;28;20031;-72
2021/08/04 00:31:41;;;;;;;18.10;8.80;;;;;;;21.60;82.43;97268.69;5076497;28;21100;-74
2021/08/04 00:34:06;;;;;;;13.50;8.82;;;;;;;21.59;82.91;97275.16;5093655;28;20020;-73
2021/08/04 00:36:32;;;;;;;15.00;8.55;;;;;;;21.58;83.38;97268.00;5093585;28;20032;-74
2021/08/04 00:38:58;;;;;;;14.60;8.80;;;;;;;21.60;82.78;97271.41;5075921;28;20080;-73
2021/08/04 00:41:24;;;;;;;14.18;8.90;;;;;;;21.68;82.46;97278.75;5093395;28;20032;-74
2021/08/04 00:43:50;;;;;;;17.40;8.45;;;;;;;21.67;82.53;97277.88;5093484;28;20406;-73
2021/08/04 00:46:15;;;;;;;16.33;8.75;;;;;;;21.66;82.67;97276.16;5093644;28;20043;-74
2021/08/04 00:48:42;;;;;;;16.15;9.10;;;;;;;21.58;82.99;97287.94;5093300;28;20024;-74
2021/08/04 00:51:08;;;;;;;15.50;10.15;;;;;;;21.52;83.58;97285.03;5093351;28;20464;-73
2021/08/04 00:53:35;;;;;;;13.55;9.48;;;;;;;21.36;83.06;97269.53;5076348;28;20031;-74
2021/08/04 00:56:01;;;;;;;15.73;10.15;;;;;;;21.32;83.59;97281.75;5093955;28;20032;-73
2021/08/04 00:58:32;;;;;;;15.02;9.77;;;;;;;21.20;84.29;97293.13;5076216;28;20464;-73
2021/08/04 01:01:17;;;;;;;16.73;9.68;;;;;;;21.13;85.10;97294.84;5093288;28;20024;-72
2021/08/04 01:03:44;;;;;;;16.02;8.90;;;;;;;20.97;85.70;97282.03;5111310;28;20028;-73
2021/08/04 01:06:33;;;;;;;20.10;9.43;;;;;;;20.96;86.00;97286.59;5093622;28;20102;-72
2021/08/04 01:08:59;;;;;;;16.40;9.73;;;;;;;20.92;86.45;97296.09;5071133;28;20115;-72
2021/08/04 01:11:28;;;;;;;17.23;9.43;;;;;;;20.84;86.99;97289.78;5093030;28;20126;-73
2021/08/04 01:13:55;;;;;;;24.33;9.40;;;;;;;20.82;87.61;97309.00;5093318;28;20069;-74
2021/08/04 01:16:26;;;;;;;18.20;9.63;;;;;;;20.75;87.85;97296.22;5093401;28;20032;-72
2021/08/04 01:19:18;;;;;;;23.20;9.82;;;;;;;20.74;88.37;97300.78;5093433;28;20020;-75
2021/08/04 01:21:53;;;;;;;20.45;9.75;;;;;;;20.76;88.15;97297.94;5093110;28;20023;-73
2021/08/04 01:24:27;;;;;;;16.40;9.65;;;;;;;20.77;87.84;97311.34;5089536;28;20040;-73
2021/08/04 01:26:54;;;;;;;19.63;9.75;;;;;;;20.72;88.11;97302.84;5073089;28;20542;-73
2021/08/04 01:29:23;;;;;;;17.35;9.82;;;;;;;20.71;88.56;97292.97;5055975;28;20024;-73
2021/08/04 01:31:50;;;;;;;21.17;10.32;;;;;;;20.70;88.80;97294.00;5055860;28;20545;-73
2021/08/04 01:34:18;;;;;;;18.02;9.80;;;;;;;20.57;88.60;97277.28;5072952;28;20467;-74
2021/08/04 01:36:44;;;;;;;18.23;9.38;;;;;;;20.45;88.18;97286.75;5056057;28;20112;-73
2021/08/04 01:39:10;;;;;;;18.08;9.55;;;;;;;20.49;88.63;97297.13;5055931;28;20499;-73
2021/08/04 01:41:37;;;;;;;19.33;9.27;;;;;;;20.35;88.18;97302.31;5072768;28;20461;-73
2021/08/04 01:44:07;;;;;;;16.75;9.45;;;;;;;20.30;88.86;97282.94;5073004;28;20063;-74
2021/08/04 01:46:32;;;;;;;18.83;9.73;;;;;;;20.34;90.22;97289.72;5055719;28;20479;-73
2021/08/04 01:49:00;;;;;;;19.13;9.75;;;;;;;20.34;90.07;97293.31;5073026;28;20110;-73
2021/08/04 01:51:26;;;;;;;17.52;9.30;;;;;;;20.30;90.71;97283.78;5076492;28;20035;-73
2021/08/04 01:53:52;;;;;;;22.10;9.52;;;;;;;20.34;91.56;97290.59;5076158;28;20134;-73
2021/08/04 01:56:18;;;;;;;22.25;9.43;;;;;;;20.33;91.67;97290.78;5076384;28;20505;-73
2021/08/04 01:58:44;;;;;;;16.90;9.65;;;;;;;20.28;92.46;97290.38;5092806;28;20040;-73
2021/08/04 02:01:10;;;;;;;25.00;9.60;;;;;;;20.25;92.46;97279.81;5059463;28;20032;-74
2021/08/04 02:03:36;;;;;;;19.88;10.35;;;;;;;20.24;92.22;97289.00;5109798;28;20043;-73
2021/08/04 02:06:07;;;;;;;15.52;8.93;;;;;;;20.22;92.88;97282.84;5076035;28;20059;-73
2021/08/04 02:08:37;;;;;;;24.15;9.77;;;;;;;20.23;93.09;97300.88;5076023;28;20028;-74
2021/08/04 02:11:08;;;;;;;17.30;9.82;;;;;;;20.25;92.87;97285.25;5059473;28;20113;-73
2021/08/04 02:13:45;;;;;;;14.88;9.55;;;;;;;20.23;93.13;97293.56;5059142;28;20028;-73
2021/08/04 02:16:10;;;;;;;15.85;8.70;;;;;;;20.21;91.77;97295.56;5059535;28;20035;-74
2021/08/04 02:18:42;;;;;;;16.40;9.15;;;;;;;20.19;91.61;97296.75;5094146;28;20110;-74
2021/08/04 02:21:08;;;;;;;;;;;;;;;20.14;91.69;97301.81;5059685;28;20395;-73
2021/08/04 02:23:37;;;;;;;17.80;9.30;;;;;;;20.12;92.72;97312.00;5072476;28;19916;-73
2021/08/04 02:26:14;;;;;;;18.38;9.75;;;;;;;20.14;92.28;97307.25;5095889;28;20110;-73
2021/08/04 02:28:42;;;;;;;26.95;10.48;;;;;;;20.14;93.04;97312.69;5096074;28;20023;-73
2021/08/04 02:31:11;;;;;;;18.42;9.85;;;;;;;20.10;93.77;97303.16;5079139;28;20023;-73
2021/08/04 02:33:37;;;;;;;18.58;9.90;;;;;;;20.17;93.49;97315.09;5095973;28;20023;-73
2021/08/04 02:36:04;;;;;;;20.85;9.82;;;;;;;20.17;93.03;97313.22;5078939;28;20470;-73
2021/08/04 02:38:30;;;;;;;19.67;9.25;;;;;;;20.17;91.73;97320.50;5095897;28;20085;-74
2021/08/04 02:40:56;;;;;;;18.85;9.55;;;;;;;20.22;91.96;97310.88;5095562;28;20035;-73
2021/08/04 02:43:22;;;;;;;22.30;10.20;;;;;;;20.26;92.06;97316.88;5095650;28;20028;-74
2021/08/04 02:45:49;;;;;;;16.55;9.70;;;;;;;20.24;91.06;97319.69;5095627;28;20031;-73
2021/08/04 02:48:15;;;;;;;15.57;9.30;;;;;;;20.32;90.02;97319.81;5095842;28;20023;-73
2021/08/04 02:50:46;;;;;;;13.23;9.18;;;;;;;20.35;89.66;97324.06;5095557;28;20031;-73
2021/08/04 02:53:16;;;;;;;137.23;14.23;;;;;;;20.35;89.87;97324.91;5078619;28;20394;-74
2021/08/04 02:55:42;;;;;;;39.47;10.00;;;;;;;20.30;88.88;97307.41;5078659;28;20061;-74
2021/08/04 02:58:08;;;;;;;20.77;8.80;;;;;;;20.31;88.74;97311.78;5078716;28;20046;-73
2021/08/04 03:00:33;;;;;;;16.45;9.80;;;;;;;20.27;89.93;97319.41;5077952;28;20028;-73
2021/08/04 03:02:59;;;;;;;18.27;9.60;;;;;;;20.17;89.53;97329.53;5077883;28;20027;-74
2021/08/04 03:05:25;;;;;;;18.13;9.05;;;;;;;20.00;89.87;97320.41;5113394;28;20024;-74
2021/08/04 03:07:50;;;;;;;21.60;10.35;;;;;;;19.87;90.90;97319.97;5094970;28;20064;-73
2021/08/04 03:10:16;;;;;;;21.50;10.30;;;;;;;19.76;91.17;97320.22;5095351;28;20483;-73
2021/08/04 03:12:42;;;;;;;14.02;9.85;;;;;;;19.65;92.61;97316.91;5113447;28;20031;-74
2021/08/04 03:15:08;;;;;;;18.77;10.10;;;;;;;19.52;93.48;97330.88;5095193;28;20023;-74
2021/08/04 03:17:33;;;;;;;26.75;10.40;;;;;;;19.46;94.14;97336.91;5078251;28;20031;-73
2021/08/04 03:19:59;;;;;;;24.20;11.05;;;;;;;19.49;94.52;97333.91;5112929;28;20032;-73
2021/08/04 03:22:24;;;;;;;25.80;10.43;;;;;;;19.42;95.21;97332.81;5073562;28;20036;-73
2021/08/04 03:24:50;;;;;;;25.20;10.63;;;;;;;19.41;95.47;97341.97;5074344;28;20032;-73
2021/08/04 03:27:15;;;;;;;21.25;10.55;;;;;;;19.35;95.64;97335.25;5074680;28;20024;-73
2021/08/04 03:29:41;;;;;;;25.27;10.90;;;;;;;19.32;96.21;97342.84;5074919;28;20028;-73
2021/08/04 03:32:07;;;;;;;23.27;10.75;;;;;;;19.36;95.83;97338.81;5057657;28;20108;-73
2021/08/04 03:34:32;;;;;;;27.17;11.45;;;;;;;19.36;96.00;97342.38;5059707;28;20377;-73
2021/08/04 03:36:58;;;;;;;27.48;11.73;;;;;;;19.38;96.03;97345.78;5039494;28;20115;-72
2021/08/04 03:39:23;;;;;;;27.85;12.00;;;;;;;19.49;95.94;97347.47;5074536;28;20028;-73
2021/08/04 03:41:49;;;;;;;25.60;11.15;;;;;;;19.57;95.21;97342.09;5074454;28;20032;-73
2021/08/04 03:44:14;;;;;;;28.83;11.55;;;;;;;19.64;95.21;97353.19;5053607;28;20028;-73
2021/08/04 03:46:46;;;;;;;23.30;10.35;;;;;;;19.71;94.47;97355.13;5037674;28;20028;-74
2021/08/04 03:49:11;;;;;;;18.40;9.67;;;;;;;19.65;93.29;97355.75;5055267;28;20463;-73
2021/08/04 03:51:37;;;;;;;20.02;10.27;;;;;;;19.55;93.50;97357.69;5054104;28;20107;-73
2021/08/04 03:54:03;;;;;;;24.50;10.20;;;;;;;19.53;93.37;97354.28;5054023;28;20097;-73
2021/08/04 03:56:28;;;;;;;19.05;10.77;;;;;;;19.63;93.04;97352.31;5053985;28;20506;-73
2021/08/04 03:58:54;;;;;;;18.00;10.02;;;;;;;19.64;92.87;97364.91;5071672;28;20033;-74
2021/08/04 04:01:19;;;;;;;21.13;10.40;;;;;;;19.66;92.76;97368.31;5054433;28;20031;-73
2021/08/04 04:03:45;;;;;;;23.77;10.60;;;;;;;19.75;92.42;97372.78;5037293;28;20040;-73
2021/08/04 04:06:10;;;;;;;22.95;11.23;;;;;;;19.77;91.94;97365.38;5039929;28;20089;-73
2021/08/04 04:08:36;;;;;;;21.15;10.85;;;;;;;19.84;91.63;97361.00;5092054;28;20059;-75
2021/08/04 04:11:02;;;;;;;17.80;10.55;;;;;;;19.97;91.13;97361.44;5071845;28;20116;-75
2021/08/04 04:13:27;;;;;;;16.40;10.50;;;;;;;19.99;90.37;97359.41;5059048;28;20034;-91
2021/08/04 04:15:53;;;;;;;27.08;10.98;;;;;;;20.02;90.46;97363.72;5041692;28;20020;-74
2021/08/04 04:18:18;;;;;;;27.40;10.82;;;;;;;20.11;90.08;97373.63;5083655;28;20024;-75
2021/08/04 04:20:44;;;;;;;20.52;10.50;;;;;;;20.24;89.77;97375.91;5091754;28;20056;-74
2021/08/04 04:23:09;;;;;;;25.33;11.25;;;;;;;20.24;89.22;97368.59;5066915;28;20086;-74
2021/08/04 04:25:35;;;;;;;29.88;11.18;;;;;;;20.22;89.43;97377.91;5093807;28;20094;-75
2021/08/04 04:28:00;;;;;;;24.45;11.38;;;;;;;20.55;87.50;97360.84;5076583;28;20024;-75
2021/08/04 04:30:26;;;;;;;26.80;10.68;;;;;;;21.19;83.41;97368.50;5076889;28;20481;-74
2021/08/04 04:32:51;;;;;;;24.35;10.57;;;;;;;21.87;78.76;97377.28;5093704;28;20019;-75
2021/08/04 04:35:17;;;;;;;22.83;9.98;;;;;;;22.00;77.79;97383.09;5108847;28;20028;-74
2021/08/04 04:37:43;;;;;;;21.80;9.90;;;;;;;21.90;78.10;97385.13;5073708;28;20012;-74
2021/08/04 04:40:09;;;;;;;32.10;10.80;;;;;;;21.72;79.39;97383.59;5093429;28;20043;-74
2021/08/04 04:42:34;;;;;;;23.60;10.85;;;;;;;21.61;80.01;97379.28;5076505;28;20035;-74
2021/08/04 04:45:00;;;;;;;41.53;10.73;;;;;;;21.60;80.06;97381.16;5076365;28;20023;-74
2021/08/04 04:47:25;;;;;;;22.58;10.82;;;;;;;21.48;80.51;97389.81;5093582;28;20026;-74
2021/08/04 04:49:51;;;;;;;18.83;10.40;;;;;;;21.45;81.03;97381.97;5111905;28;20020;-74
2021/08/04 04:52:16;;;;;;;28.40;12.48;;;;;;;21.60;80.76;97388.47;5076333;28;20031;-74
2021/08/04 04:54:42;;;;;;;22.23;10.20;;;;;;;21.68;80.58;97393.94;5076577;28;20446;-75
2021/08/04 04:57:07;;;;;;;28.40;11.02;;;;;;;21.82;79.78;97403.31;5093012;28;20046;-73
2021/08/04 04:59:33;;;;;;;29.75;12.02;;;;;;;21.75;79.76;97405.84;5076474;28;20367;-74
2021/08/04 05:01:58;;;;;;;48.83;13.07;;;;;;;21.53;81.24;97411.97;5093081;28;20050;-74
2021/08/04 05:04:24;;;;;;;25.10;11.68;;;;;;;21.75;79.39;97413.19;5056124;28;20031;-74
2021/08/04 05:06:49;;;;;;;20.50;11.70;;;;;;;21.81;78.98;97407.91;5056267;28;20031;-74
2021/08/04 05:09:15;;;;;;;28.13;12.93;;;;;;;21.92;78.58;97407.63;5075248;28;20114;-74
2021/08/04 05:11:40;;;;;;;59.33;14.25;;;;;;;22.07;77.38;97411.38;5093077;28;20023;-74
2021/08/04 05:14:06;;;;;;;42.80;12.38;;;;;;;22.17;76.92;97394.00;5076101;28;20020;-74
2021/08/04 05:16:31;;;;;;;24.55;12.55;;;;;;;22.48;75.99;97414.09;5093394;28;20016;-74
2021/08/04 05:18:57;;;;;;;34.08;12.50;;;;;;;22.75;74.53;97408.28;5076985;28;20024;-74
2021/08/04 05:21:23;;;;;;;21.10;12.02;;;;;;;22.69;73.83;97406.25;5056097;28;20073;-75
2021/08/04 05:23:49;;;;;;;20.85;10.68;;;;;;;22.90;73.29;97414.72;5070906;28;20396;-73
2021/08/04 05:26:14;;;;;;;18.45;9.93;;;;;;;23.09;71.92;97408.00;5080015;28;20063;-74
2021/08/04 05:28:43;;;;;;;32.90;11.02;;;;;;;23.60;70.05;97414.78;5080324;28;20030;-76
2021/08/04 05:31:09;;;;;;;55.17;15.63;;;;;;;25.12;63.91;97417.28;5080042;28;20082;-74
2021/08/04 05:33:35;;;;;;;50.40;14.57;;;;;;;27.32;56.86;97439.19;5080075;28;20451;-74
2021/08/04 05:36:00;;;;;;;21.65;10.07;;;;;;;28.92;50.65;97435.66;5080186;28;20038;-76
2021/08/04 05:38:26;;;;;;;31.08;10.30;;;;;;;30.13;47.40;97445.13;5080014;28;20055;-76
2021/08/04 05:40:51;;;;;;;21.35;9.95;;;;;;;30.85;44.82;97457.63;5115247;28;20019;-74
2021/08/04 05:43:17;;;;;;;20.73;9.02;;;;;;;31.26;43.47;97441.31;5096624;28;20492;-75
2021/08/04 05:45:42;;;;;;;24.35;9.60;;;;;;;31.89;41.82;97453.00;5096662;28;20016;-75
2021/08/04 05:48:08;;;;;;;22.30;9.38;;;;;;;32.63;40.60;97455.44;5114641;28;20522;-75
2021/08/04 05:50:33;;;;;;;34.50;9.77;;;;;;;32.86;39.62;97464.84;5096578;28;20024;-75
2021/08/04 05:52:59;;;;;;;19.15;8.57;;;;;;;33.58;38.31;97455.28;5079386;28;20421;-75
2021/08/04 05:55:25;;;;;;;31.67;8.93;;;;;;;34.75;35.95;97454.75;5096676;28;20016;-75
2021/08/04 05:57:50;;;;;;;27.42;9.55;;;;;;;34.44;36.14;97463.56;5079777;28;20137;-72
2021/08/04 06:00:16;;;;;;;17.55;8.27;;;;;;;36.10;34.02;97457.19;5096270;28;20063;-73
2021/08/04 06:02:41;;;;;;;16.73;8.80;;;;;;;37.22;31.71;97453.69;5096571;28;20024;-75
2021/08/04 06:05:08;;;;;;;27.70;8.80;;;;;;;38.55;29.88;97462.59;5079222;28;20027;-76
2021/08/04 06:07:33;;;;;;;150.35;12.70;;;;;;;39.22;28.74;97459.66;5088185;28;20085;-76
2021/08/04 06:09:59;;;;;;;39.13;9.23;;;;;;;39.09;28.83;97463.84;5096413;28;20471;-74
2021/08/04 06:12:24;;;;;;;32.85;8.75;;;;;;;39.81;27.49;97457.13;5096149;28;20058;-75
2021/08/04 06:14:50;;;;;;;27.75;9.00;;;;;;;39.30;27.95;97456.31;5096488;28;20475;-75
2021/08/04 06:17:15;;;;;;;30.05;8.35;;;;;;;38.21;29.08;97456.59;5114165;28;20039;-75
2021/08/04 06:19:41;;;;;;;24.42;8.57;;;;;;;38.37;29.17;97459.19;5096173;28;20027;-73
2021/08/04 06:22:07;;;;;;;22.33;8.38;;;;;;;37.06;31.06;97471.41;5078959;28;20464;-74
2021/08/04 06:24:34;;;;;;;34.30;9.13;;;;;;;38.13;29.93;97452.34;5078811;28;20452;-73
2021/08/04 06:26:59;;;;;;;23.77;10.48;;;;;;;39.04;29.31;97467.47;5079095;28;20020;-74
2021/08/04 06:29:25;;;;;;;24.83;11.35;;;;;;;39.39;28.51;97463.03;5078884;28;20088;-73
2021/08/04 06:31:50;;;;;;;32.50;12.90;;;;;;;39.90;27.56;97447.81;5079216;28;20032;-73
2021/08/04 06:34:16;;;;;;;332.33;24.17;;;;;;;40.26;27.37;97456.16;5095759;28;20029;-74
2021/08/04 06:36:42;;;;;;;60.78;10.63;;;;;;;40.46;27.17;97461.66;5094201;28;20027;-74
2021/08/04 06:39:07;;;;;;;41.67;9.40;;;;;;;40.57;26.89;97452.09;5095955;28;20028;-75
2021/08/04 06:41:33;;;;;;;31.25;9.95;;;;;;;40.49;27.16;97461.06;5113792;28;20041;-74
2021/08/04 06:43:58;;;;;;;44.72;9.30;;;;;;;40.43;26.89;97462.22;5095476;28;20027;-73
2021/08/04 06:46:35;;;;;;;24.45;7.70;;;;;;;41.25;25.75;97457.81;5095639;28;20062;-74
2021/08/04 06:49:02;;;;;;;16.77;8.00;;;;;;;41.86;25.26;97456.16;5113951;28;20091;-74
2021/08/04 06:51:28;;;;;;;16.65;7.53;;;;;;;41.62;24.94;97452.47;5095375;28;20036;-74
2021/08/04 06:53:54;;;;;;;26.17;8.77;;;;;;;42.88;24.12;97442.50;5112599;28;20051;-74
2021/08/04 06:56:19;;;;;;;35.60;8.60;;;;;;;43.32;23.26;97446.91;5095409;28;20027;-74
2021/08/04 06:58:45;;;;;;;22.35;7.60;;;;;;;43.22;23.42;97445.91;5095441;28;20030;-75
2021/08/04 07:01:10;;;;;;;20.70;7.03;;;;;;;43.60;22.88;97452.31;5095193;28;20471;-73
2021/08/04 07:03:38;;;;;;;29.23;8.10;;;;;;;43.54;23.28;97450.75;5113242;28;20027;-73
2021/08/04 07:06:09;;;;;;;41.45;8.43;;;;;;;43.25;23.56;97446.44;5095479;28;20502;-72
2021/08/04 07:08:35;;;;;;;68.43;10.45;;;;;;;44.49;22.54;97443.53;5077885;28;20059;-73
2021/08/04 07:11:01;;;;;;;54.65;9.60;;;;;;;45.24;21.75;97439.00;5078128;28;20400;-73
2021/08/04 07:13:27;;;;;;;219.75;17.48;;;;;;;45.67;21.69;97445.00;5094851;28;20038;-74
2021/08/04 07:15:52;;;;;;;31.75;7.82;;;;;;;46.53;20.25;97441.72;5094941;28;20015;-73
2021/08/04 07:18:18;;;;;;;13.40;6.80;;;;;;;47.22;19.24;97435.03;5094951;28;20028;-73
2021/08/04 07:20:44;;;;;;;55.63;10.02;;;;;;;46.75;18.88;97428.28;5112869;28;20022;-73
2021/08/04 07:23:09;;;;;;;18.30;5.38;;;;;;;45.67;18.10;97429.97;5094939;28;20054;-73
2021/08/04 07:25:35;;;;;;;68.00;8.27;;;;;;;46.21;16.85;97412.63;5094636;28;20023;-73
2021/08/04 07:28:01;;;;;;;51.40;6.55;;;;;;;47.59;16.23;97421.31;5094857;28;20561;-73
2021/08/04 07:30:26;;;;;;;19.52;5.15;;;;;;;48.03;15.46;97418.00;5077518;28;20085;-74
2021/08/04 07:32:52;;;;;;;18.42;4.55;;;;;;;48.07;14.98;97407.66;5094686;28;20051;-75
2021/08/04 07:35:17;;;;;;;31.23;6.22;;;;;;;48.13;15.21;97408.28;5077731;28;20023;-74
2021/08/04 07:37:45;;;;;;;177.20;14.32;;;;;;;48.18;14.62;97410.97;5094510;28;20474;-74
2021/08/04 07:40:11;;;;;;;22.33;4.38;;;;;;;48.22;14.48;97407.09;5095173;28;20512;-73
2021/08/04 07:42:37;;;;;;;24.65;5.18;;;;;;;47.71;14.83;97408.09;5094543;28;20074;-77
2021/08/04 07:45:03;;;;;;;19.55;4.05;;;;;;;47.76;14.59;97405.06;5094487;28;20051;-76
2021/08/04 07:47:28;;;;;;;15.82;4.68;;;;;;;47.78;14.53;97399.03;5077188;28;20031;-75
2021/08/04 07:49:54;;;;;;;16.88;4.10;;;;;;;47.68;14.67;97396.59;5094515;28;20023;-74
2021/08/04 07:52:19;;;;;;;14.23;4.07;;;;;;;48.66;14.02;97404.88;5094218;28;20483;-74
2021/08/04 07:54:45;;;;;;;12.43;4.20;;;;;;;47.81;14.40;97389.88;5094289;28;20467;-74
2021/08/04 07:57:10;;;;;;;14.95;4.15;;;;;;;47.15;15.01;97397.84;5112560;28;20110;-74
2021/08/04 07:59:36;;;;;;;21.65;5.45;;;;;;;47.43;14.98;97403.13;5077230;28;20037;-74
2021/08/04 08:02:03;;;;;;;788.97;38.38;;;;;;;47.59;14.59;97390.97;5077353;28;20016;-74
2021/08/04 08:04:31;;;;;;;53.95;7.60;;;;;;;48.27;14.40;97404.06;5077391;28;20114;-74
2021/08/04 08:06:57;;;;;;;28.25;5.55;;;;;;;49.71;13.35;97405.31;5112948;28;20023;-73
2021/08/04 08:09:24;;;;;;;15.20;4.38;;;;;;;48.39;14.19;97398.47;5111222;28;20034;-75
2021/08/04 08:11:50;;;;;;;312.58;20.83;;;;;;;48.78;13.34;97393.56;5094073;28;20023;-76
2021/08/04 08:14:16;;;;;;;15.38;3.50;;;;;;;48.41;13.09;97389.63;5076982;28;20030;-76
2021/08/04 08:16:42;;;;;;;51.15;4.50;;;;;;;48.35;13.03;97373.97;5093996;28;20063;-75
2021/08/04 08:19:07;;;;;;;25.00;4.03;;;;;;;47.99;12.92;97368.78;5077343;28;20485;-76
2021/08/04 08:21:33;;;;;;;12.73;3.60;;;;;;;46.90;13.58;97370.31;5094038;28;20023;-75
2021/08/04 08:23:59;;;;;;;20.83;3.95;;;;;;;47.76;13.59;97370.19;5093800;28;20085;-75
2021/08/04 08:26:25;;;;;;;19.02;3.92;;;;;;;47.33;13.91;97381.63;5110973;28;20076;-75
2021/08/04 08:28:52;;;;;;;65.03;5.20;;;;;;;45.63;14.89;97366.72;5093556;28;20472;-74
2021/08/04 08:31:18;;;;;;;15.35;3.50;;;;;;;46.52;14.33;97369.28;5076947;28;20069;-76
2021/08/04 08:33:43;;;;;;;36.40;5.60;;;;;;;45.91;14.10;97348.41;5076814;28;20059;-74
2021/08/04 08:36:09;;;;;;;14.35;3.38;;;;;;;45.87;14.32;97361.56;5093789;28;20410;-76
2021/08/04 08:38:36;;;;;;;23.08;4.03;;;;;;;45.59;14.28;97351.59;5093599;28;20062;-75
2021/08/04 08:41:03;;;;;;;60.88;5.93;;;;;;;45.58;14.89;97350.75;5093599;28;20034;-74
2021/08/04 08:43:29;;;;;;;102.47;9.23;;;;;;;45.17;14.92;97351.00;5093719;28;20387;-74
2021/08/04 08:45:55;;;;;;;1552.93;93.05;;;;;;;45.61;15.03;97352.09;5076425;28;20057;-75
2021/08/04 08:48:21;;;;;;;205.63;15.27;;;;;;;46.22;14.34;97356.84;5093528;28;20502;-76
2021/08/04 08:50:48;;;;;;;29.75;4.53;;;;;;;46.45;13.99;97334.94;5076657;28;20040;-75
2021/08/04 08:53:14;;;;;;;23.02;5.00;;;;;;;47.28;14.29;97339.28;5093961;28;20042;-74
2021/08/04 08:55:40;;;;;;;20.50;4.10;;;;;;;47.01;13.83;97345.31;5093335;28;20480;-76
2021/08/04 08:58:06;;;;;;;61.38;5.40;;;;;;;47.30;14.12;97343.44;5093247;28;20407;-74
2021/08/04 09:00:32;;;;;;;23.85;4.03;;;;;;;47.74;13.88;97345.00;5092860;28;20070;-73
2021/08/04 09:02:58;;;;;;;18.98;4.20;;;;;;;48.05;13.75;97336.22;5092775;28;20054;-74
2021/08/04 09:05:23;;;;;;;48.90;5.68;;;;;;;47.49;14.19;97333.72;5111382;28;20035;-74
2021/08/04 09:07:49;;;;;;;30.63;4.80;;;;;;;47.97;14.16;97333.38;5092986;28;20030;-75
2021/08/04 09:10:30;;;;;;;15.73;3.63;;;;;;;48.22;13.43;97338.09;5093449;28;20028;-74
2021/08/04 09:13:04;;;;;;;25.13;4.90;;;;;;;48.79;12.82;97338.41;5093627;28;20031;-73
2021/08/04 09:15:37;;;;;;;13.63;4.22;;;;;;;48.47;13.29;97330.59;5093268;28;20031;-73
2021/08/04 09:18:14;;;;;;;18.83;4.38;;;;;;;47.05;14.65;97317.94;5085188;28;20428;-73
2021/08/04 09:20:51;;;;;;;17.08;4.15;;;;;;;47.74;14.10;97329.97;5127009;28;20452;-77
2021/08/04 09:23:18;;;;;;;14.00;3.95;;;;;;;49.15;12.80;97324.38;5104953;28;20075;-75
2021/08/04 09:26:03;;;;;;;15.98;3.95;;;;;;;49.88;12.64;97327.41;5113236;28;20034;-75
2021/08/04 09:28:30;;;;;;;19.02;4.05;;;;;;;50.72;12.12;97320.00;5130711;28;20031;-74
2021/08/04 09:31:01;;;;;;;20.48;4.60;;;;;;;50.34;12.31;97309.88;5096281;28;20027;-74
2021/08/04 09:33:33;;;;;;;31.23;4.75;;;;;;;50.10;12.52;97304.19;5096434;28;20277;-74
2021/08/04 09:35:59;;;;;;;15.60;3.78;;;;;;;50.18;12.28;97308.91;5096402;28;20402;-74
2021/08/04 09:38:25;;;;;;;15.98;4.38;;;;;;;49.78;12.85;97302.28;5113619;28;20027;-75
2021/08/04 09:41:16;;;;;;;21.27;3.75;;;;;;;48.63;13.09;97306.13;5130294;28;20031;-74
2021/08/04 09:43:48;;;;;;;19.60;3.85;;;;;;;46.98;13.45;97297.81;5130302;27;20023;-74
2021/08/04 09:46:24;;;;;;;17.95;4.28;;;;;;;47.49;13.77;97302.53;5096846;28;20202;-74
2021/08/04 09:48:50;;;;;;;37.75;5.18;;;;;;;48.28;13.20;97292.16;5113146;28;20420;-74
2021/08/04 09:51:17;;;;;;;148.93;9.43;;;;;;;47.76;13.44;97290.75;5113523;28;20061;-74
2021/08/04 09:53:46;;;;;;;383.25;27.02;;;;;;;46.73;14.33;97297.44;5131733;28;20457;-74
2021/08/04 09:56:14;;;;;;;81.45;10.85;;;;;;;47.48;13.66;97289.50;5076707;28;20028;-74
2021/08/04 09:58:42;;;;;;;223.18;11.85;;;;;;;47.85;13.86;97274.50;5112041;28;20032;-91
2021/08/04 10:01:11;;;;;;;119.85;8.23;;;;;;;48.14;13.73;97296.41;5093919;28;20085;-90
2021/08/04 10:03:36;;;;;;;82.07;6.63;;;;;;;47.90;13.75;97285.69;5077647;28;20023;-90
2021/08/04 10:06:02;;;;;;;12.25;3.72;;;;;;;47.68;14.15;97281.13;5075980;28;20483;-90
2021/08/04 10:08:27;;;;;;;39.63;5.10;;;;;;;47.29;14.43;97282.22;5077410;28;20027;-90
2021/08/04 10:10:56;;;;;;;227.00;12.57;;;;;;;48.18;13.99;97283.19;5077918;28;20064;-90
2021/08/04 10:13:31;;;;;;;28.35;4.40;;;;;;;48.26;13.95;97279.47;5099323;28;20387;-90
2021/08/04 10:15:58;;;;;;;16.83;3.33;;;;;;;48.16;14.36;97286.34;5099377;28;20042;-90
2021/08/04 10:18:30;;;;;;;27.35;4.38;;;;;;;48.57;13.97;97267.69;5083435;28;20118;-90
2021/08/04 10:21:11;;;;;;;24.60;3.80;;;;;;;47.51;14.59;97271.84;5082331;28;20059;-90
2021/08/04 10:23:37;;;;;;;31.02;4.35;;;;;;;48.32;14.36;97278.94;5069808;28;20079;-89
2021/08/04 10:26:10;;;;;;;11.85;3.92;;;;;;;47.60;14.56;97278.28;5062207;28;20032;-90
2021/08/04 10:28:36;;;;;;;86.25;7.70;;;;;;;48.39;13.66;97281.22;5078171;28;20027;-90
2021/08/04 10:31:02;;;;;;;108.25;8.43;;;;;;;48.50;13.64;97285.28;5061849;28;20407;-91
2021/08/04 10:33:28;;;;;;;45.03;5.38;;;;;;;45.63;15.48;97276.22;5043319;28;20040;-91
2021/08/04 10:36:04;;;;;;;18.42;4.47;;;;;;;45.17;15.93;97274.69;5085540;28;20058;-90
2021/08/04 10:38:36;;;;;;;21.00;3.90;;;;;;;44.24;17.16;97282.06;5058790;28;20039;-90
2021/08/04 10:41:23;;;;;;;18.60;3.65;;;;;;;44.43;16.83;97275.44;5066253;28;20032;-89
2021/08/04 10:43:50;;;;;;;51.38;6.05;;;;;;;45.27;16.36;97274.41;5054937;28;20032;-90
2021/08/04 10:46:29;;;;;;;69.25;6.75;;;;;;;46.82;14.91;97269.16;5066568;28;20064;-91
2021/08/04 10:49:03;;;;;;;40.00;6.85;;;;;;;47.52;14.68;97268.66;5064693;28;20506;-91
2021/08/04 10:51:35;;;;;;;217.88;12.75;;;;;;;48.25;14.40;97266.44;5093345;28;20036;-92
2021/08/04 10:54:00;;;;;;;839.60;61.65;;;;;;;49.31;13.14;97274.22;5086331;28;20036;-91
2021/08/04 10:56:48;;;;;;;79.60;7.13;;;;;;;48.80;13.52;97264.16;5068201;28;20476;-92
2021/08/04 10:59:13;;;;;;;10.27;3.45;;;;;;;47.02;14.75;97251.44;5083810;28;20039;-91
2021/08/04 11:01:45;;;;;;;18.35;4.88;;;;;;;47.64;14.15;97251.75;5073179;28;20077;-91
2021/08/04 11:04:12;;;;;;;23.50;4.18;;;;;;;46.87;14.56;97260.47;5053648;28;20086;-90
2021/08/04 11:07:08;;;;;;;9.88;3.05;;;;;;;46.58;14.90;97255.47;5049459;28;20032;-91
2021/08/04 11:09:38;;;;;;;16.90;3.88;;;;;;;48.02;13.71;97254.56;5087165;28;20024;-91
2021/08/04 11:12:17;;;;;;;13.07;3.80;;;;;;;47.08;14.63;97250.09;5049150;28;20415;-89
2021/08/04 11:14:49;;;;;;;15.63;3.78;;;;;;;48.37;13.80;97249.47;5078203;28;20143;-91
2021/08/04 11:17:23;;;;;;;14.13;3.90;;;;;;;49.52;13.00;97236.28;5059111;28;20036;-91
2021/08/04 11:20:07;;;;;;;25.02;4.30;;;;;;;49.63;12.60;97248.88;5065908;28;20460;-92
2021/08/04 11:22:39;;;;;;;22.05;4.32;;;;;;;50.06;12.22;97248.28;5071550;28;20499;-92